Time;durP1;ratioP1;P1;durP2;ratioP2;P2;SDS_P1;SDS_P2;PMS_P1;PMS_P2;Temp;Humidity;BMP_temperature;BMP_pressure;BME280_temperature;BME280_humidity;BME280_pressure;Samples;Min_cycle;Max_cycle;Signal;HPM_P1;HPM_P2
2022/04/17 00:01:14;;;;;;;2.83;2.20;;;;;;;5.39;70.25;103204.50;5052154;28;20032;-66
2022/04/17 00:03:41;;;;;;;2.45;2.20;;;;;;;5.37;70.34;103202.72;5053435;28;20513;-67
2022/04/17 00:06:07;;;;;;;4.03;2.38;;;;;;;5.34;70.32;103203.53;5053465;28;20486;-67
2022/04/17 00:08:32;;;;;;;2.30;2.10;;;;;;;5.32;71.15;103202.66;5052368;28;20044;-66
2022/04/17 00:10:58;;;;;;;2.90;2.30;;;;;;;5.26;71.28;103194.69;5052780;28;20145;-66
2022/04/17 00:13:25;;;;;;;3.15;2.60;;;;;;;5.21;70.75;103199.88;5023267;28;20028;-66
2022/04/17 00:15:51;;;;;;;3.25;2.05;;;;;;;5.16;71.36;103199.81;5049258;28;20035;-66
2022/04/17 00:18:17;;;;;;;3.03;2.42;;;;;;;5.13;71.70;103198.88;5050385;28;20228;-67
2022/04/17 00:20:42;;;;;;;2.85;2.20;;;;;;;5.08;71.95;103198.81;5052082;28;20041;-66
2022/04/17 00:23:08;;;;;;;3.47;2.25;;;;;;;5.03;71.64;103196.09;5051632;28;20120;-67
2022/04/17 00:25:33;;;;;;;3.38;2.40;;;;;;;4.99;71.48;103191.66;5034205;28;20232;-66
2022/04/17 00:27:59;;;;;;;2.28;1.95;;;;;;;4.98;71.83;103200.41;5052167;28;20033;-66
2022/04/17 00:30:24;;;;;;;3.40;2.38;;;;;;;4.98;71.53;103189.91;5052918;28;20452;-66
2022/04/17 00:32:50;;;;;;;4.22;2.60;;;;;;;4.96;71.71;103193.38;5052061;28;20503;-67
2022/04/17 00:35:15;;;;;;;2.90;2.38;;;;;;;4.94;70.91;103189.81;5034354;28;20036;-66
2022/04/17 00:37:40;;;;;;;3.75;2.10;;;;;;;4.94;70.85;103188.06;5051232;28;20054;-66
2022/04/17 00:40:07;;;;;;;4.32;2.28;;;;;;;4.94;71.10;103184.56;5052427;28;21573;-67
2022/04/17 00:42:32;;;;;;;2.55;2.20;;;;;;;4.93;71.50;103172.28;5052166;28;20720;-66
2022/04/17 00:44:58;;;;;;;4.13;2.35;;;;;;;4.92;71.26;103184.56;5034215;28;20048;-67
2022/04/17 00:47:23;;;;;;;5.13;2.25;;;;;;;4.92;71.01;103175.78;5052836;28;20067;-66
2022/04/17 00:49:49;;;;;;;2.47;1.95;;;;;;;4.92;70.90;103171.44;5051537;28;20031;-67
2022/04/17 00:52:16;;;;;;;4.28;2.40;;;;;;;4.92;71.15;103166.19;5034305;28;20059;-67
2022/04/17 00:54:46;;;;;;;3.10;2.47;;;;;;;4.92;71.80;103171.44;5036711;28;20894;-67
2022/04/17 00:57:13;;;;;;;2.78;2.10;;;;;;;4.92;71.21;103166.19;5053086;28;20035;-67
2022/04/17 00:59:42;;;;;;;3.70;2.60;;;;;;;4.94;71.53;103171.44;5052298;28;20138;-67
2022/04/17 01:02:07;;;;;;;3.85;2.70;;;;;;;4.97;71.35;103161.00;5035178;28;20117;-67
2022/04/17 01:04:33;;;;;;;3.58;2.47;;;;;;;5.00;71.57;103158.41;5037336;28;20502;-67
2022/04/17 01:06:58;;;;;;;2.60;2.08;;;;;;;5.00;71.73;103155.78;5055747;28;20032;-67
2022/04/17 01:09:24;;;;;;;3.22;2.25;;;;;;;5.00;71.69;103156.66;5055944;28;20047;-67
2022/04/17 01:11:51;;;;;;;3.15;2.20;;;;;;;4.97;71.71;103148.72;5055031;28;20048;-67
2022/04/17 01:14:17;;;;;;;3.47;2.50;;;;;;;4.95;71.94;103149.59;5024235;28;20131;-67
2022/04/17 01:16:43;;;;;;;5.43;2.30;;;;;;;4.93;72.32;103149.56;5054576;28;20043;-67
2022/04/17 01:19:12;;;;;;;3.85;2.47;;;;;;;4.89;72.83;103143.38;5055804;28;20259;-67
2022/04/17 01:21:39;;;;;;;3.67;2.70;;;;;;;4.85;72.51;103143.31;5055802;28;20047;-67
2022/04/17 01:26:58;;;;;;;4.90;2.47;;;;;;;4.81;72.70;103137.13;5056442;28;20032;-67
2022/04/17 01:29:34;;;;;;;4.05;2.50;;;;;;;4.82;72.84;103138.00;5054289;28;20119;-67
2022/04/17 01:32:02;;;;;;;3.53;2.53;;;;;;;4.82;72.82;103132.75;5055792;28;20043;-67
2022/04/17 01:34:28;;;;;;;3.33;2.38;;;;;;;4.84;72.74;103144.16;5055080;28;20040;-67
2022/04/17 01:36:54;;;;;;;3.25;2.67;;;;;;;4.84;73.24;103136.28;5055751;28;20033;-67
2022/04/17 01:39:19;;;;;;;4.30;2.60;;;;;;;4.84;72.65;103131.94;5055698;28;20447;-67
2022/04/17 01:41:49;;;;;;;3.85;2.50;;;;;;;4.84;72.88;103139.78;5054525;28;20032;-67
2022/04/17 01:44:18;;;;;;;4.38;2.90;;;;;;;4.82;72.63;103132.75;5054104;28;20037;-67
2022/04/17 01:46:44;;;;;;;3.13;2.28;;;;;;;4.77;72.65;103137.94;5054427;28;20117;-67
2022/04/17 01:49:11;;;;;;;4.32;2.67;;;;;;;4.75;72.52;103131.78;5036228;28;20040;-67
2022/04/17 01:51:38;;;;;;;4.45;2.70;;;;;;;4.72;72.87;103135.25;5038224;28;20043;-68
2022/04/17 01:54:11;;;;;;;4.07;2.70;;;;;;;4.69;72.92;103131.69;5037232;28;20067;-67
2022/04/17 01:56:38;;;;;;;4.90;3.08;;;;;;;4.67;72.71;103134.28;5055822;28;20589;-67
2022/04/17 01:59:05;;;;;;;4.72;2.85;;;;;;;4.63;73.06;103127.22;5054437;28;20042;-67
2022/04/17 02:01:35;;;;;;;6.50;3.08;;;;;;;4.61;73.49;103128.94;5055717;28;20060;-67
2022/04/17 02:04:01;;;;;;;4.40;2.92;;;;;;;4.61;73.49;103131.56;5054303;28;20074;-67
2022/04/17 02:06:27;;;;;;;5.03;2.90;;;;;;;4.61;73.91;103129.81;5055304;28;20799;-67
2022/04/17 02:08:53;;;;;;;7.38;2.97;;;;;;;4.59;73.82;103126.28;5053563;28;20040;-67
2022/04/17 02:11:19;;;;;;;5.47;2.83;;;;;;;4.56;73.93;103138.47;5054888;28;20052;-66
2022/04/17 02:13:45;;;;;;;4.80;2.92;;;;;;;4.53;74.11;103135.81;5054544;28;20044;-67
2022/04/17 02:16:11;;;;;;;4.60;3.00;;;;;;;4.52;74.22;103128.78;5053802;28;20079;-69
2022/04/17 02:18:36;;;;;;;3.50;2.90;;;;;;;4.48;74.12;103127.88;5023210;28;20430;-66
2022/04/17 02:21:02;;;;;;;4.25;3.00;;;;;;;4.45;74.75;103125.16;5055258;28;20041;-67
2022/04/17 02:23:28;;;;;;;3.60;2.78;;;;;;;4.40;74.41;103119.84;5055009;28;20027;-67
2022/04/17 02:25:53;;;;;;;3.97;2.78;;;;;;;4.40;75.11;103119.00;5054815;28;20027;-67
2022/04/17 02:28:19;;;;;;;5.68;3.10;;;;;;;4.40;75.32;103117.22;5053917;28;20380;-67
2022/04/17 02:30:44;;;;;;;4.35;3.15;;;;;;;4.40;75.10;103119.00;5054275;28;20036;-67
2022/04/17 02:33:10;;;;;;;5.15;3.35;;;;;;;4.40;75.60;103111.13;5054322;28;20035;-67
2022/04/17 02:35:36;;;;;;;6.55;3.10;;;;;;;4.41;75.56;103108.50;5053011;28;20136;-67
2022/04/17 02:38:02;;;;;;;4.30;3.08;;;;;;;4.42;75.43;103112.00;5054604;28;20385;-67
2022/04/17 02:40:28;;;;;;;5.80;3.30;;;;;;;4.43;75.71;103116.41;5035518;28;20672;-67
2022/04/17 02:42:53;;;;;;;4.60;3.08;;;;;;;4.41;75.45;103107.63;5055270;28;20468;-67
2022/04/17 02:45:21;;;;;;;3.92;3.15;;;;;;;4.42;75.57;103112.88;5054165;28;20037;-67
2022/04/17 02:47:50;;;;;;;5.15;3.25;;;;;;;4.41;76.20;103113.75;5054636;28;20043;-67
2022/04/17 02:50:17;;;;;;;4.85;3.30;;;;;;;4.41;75.47;103112.88;5035834;28;20063;-67
2022/04/17 02:52:43;;;;;;;3.50;2.90;;;;;;;4.39;75.85;103107.59;5035896;28;20203;-67
2022/04/17 02:55:10;;;;;;;5.05;3.15;;;;;;;4.37;75.46;103111.94;5054473;28;20033;-67
2022/04/17 02:57:36;;;;;;;6.20;3.40;;;;;;;4.36;75.56;103110.16;5021064;28;20056;-66
2022/04/17 03:00:04;;;;;;;5.45;3.30;;;;;;;4.37;75.96;103103.19;5053314;28;20020;-67
2022/04/17 03:07:58;;;;;;;6.32;3.35;;;;;;;4.33;75.70;103107.50;5054280;28;20111;-67
2022/04/17 03:10:24;;;;;;;4.53;3.17;;;;;;;4.31;76.06;103098.72;5031339;28;20176;-67
2022/04/17 03:12:50;;;;;;;5.65;3.53;;;;;;;4.31;76.15;103096.97;5033606;28;20685;-67
2022/04/17 03:15:16;;;;;;;6.25;3.60;;;;;;;4.28;76.76;103098.66;5032284;28;20025;-67
2022/04/17 03:17:41;;;;;;;4.72;3.58;;;;;;;4.27;76.65;103104.75;5032390;28;20039;-67
2022/04/17 03:20:07;;;;;;;5.53;3.40;;;;;;;4.25;76.75;103098.63;5033236;28;20115;-67
2022/04/17 03:22:33;;;;;;;6.25;3.78;;;;;;;4.22;76.38;103086.31;5033421;28;20783;-67
2022/04/17 03:25:04;;;;;;;5.07;3.80;;;;;;;4.18;76.52;103085.41;5034301;28;20313;-66
2022/04/17 03:27:30;;;;;;;4.95;3.60;;;;;;;4.18;76.65;103085.41;5032872;28;20024;-67
2022/04/17 03:29:56;;;;;;;8.57;4.05;;;;;;;4.19;76.86;103083.63;5033008;28;20565;-67
2022/04/17 03:32:21;;;;;;;4.93;3.40;;;;;;;4.17;76.94;103075.75;5033702;28;20037;-67
2022/04/17 03:34:47;;;;;;;5.28;3.70;;;;;;;4.16;76.58;103067.88;5033355;28;20030;-67
2022/04/17 03:37:14;;;;;;;4.90;3.80;;;;;;;4.15;76.92;103076.59;5033163;28;21418;-67
2022/04/17 03:39:40;;;;;;;7.47;3.53;;;;;;;4.12;76.82;103066.94;5033617;28;20048;-67
2022/04/17 03:42:06;;;;;;;6.00;3.45;;;;;;;4.12;77.19;103068.66;5033141;28;20510;-67
2022/04/17 03:44:32;;;;;;;5.93;4.20;;;;;;;4.12;77.25;103071.28;5033629;28;20653;-67
2022/04/17 03:46:57;;;;;;;7.43;3.80;;;;;;;4.11;77.23;103075.66;5033887;28;20040;-67
2022/04/17 03:49:24;;;;;;;5.50;3.40;;;;;;;4.10;76.99;103073.00;5031685;28;20037;-67
2022/04/17 03:51:49;;;;;;;8.00;4.20;;;;;;;4.07;77.77;103068.59;5033035;28;20517;-67
2022/04/17 03:54:16;;;;;;;5.65;3.40;;;;;;;4.04;78.00;103064.16;5032851;28;20054;-67
2022/04/17 03:56:43;;;;;;;5.75;3.97;;;;;;;4.02;77.88;103065.00;5033423;28;20058;-67
2022/04/17 03:59:09;;;;;;;5.35;3.92;;;;;;;4.00;78.31;103071.94;5032012;28;20032;-67
2022/04/17 04:01:35;;;;;;;5.75;3.60;;;;;;;3.97;78.06;103066.66;5032024;28;20032;-68
2022/04/17 04:04:01;;;;;;;5.30;3.95;;;;;;;3.94;78.51;103070.97;5032850;28;20067;-67
2022/04/17 04:06:26;;;;;;;7.43;3.70;;;;;;;3.91;78.68;103065.69;5033491;28;20044;-67
2022/04/17 04:08:53;;;;;;;8.57;4.32;;;;;;;3.87;78.64;103066.47;5033294;28;20033;-67
2022/04/17 04:11:19;;;;;;;7.53;3.95;;;;;;;3.87;78.68;103065.63;5045516;28;20068;-67
2022/04/17 04:13:45;;;;;;;4.60;3.42;;;;;;;3.84;78.99;103060.31;5051877;28;20154;-67
2022/04/17 04:16:10;;;;;;;5.80;3.70;;;;;;;3.82;79.33;103060.28;5052927;28;20079;-67
2022/04/17 04:18:36;;;;;;;5.15;3.45;;;;;;;3.78;78.59;103061.09;5052994;28;20032;-67
2022/04/17 04:21:02;;;;;;;7.88;3.90;;;;;;;3.75;79.23;103064.53;5052742;28;20029;-67
2022/04/17 04:23:33;;;;;;;5.82;3.83;;;;;;;3.73;79.32;103057.47;5052223;28;20028;-67
2022/04/17 04:25:59;;;;;;;5.97;3.70;;;;;;;3.72;79.60;103060.97;5051807;28;20056;-67
2022/04/17 04:28:34;;;;;;;5.93;3.60;;;;;;;3.70;79.32;103057.44;5053478;28;20570;-67
2022/04/17 04:31:00;;;;;;;7.18;3.83;;;;;;;3.65;79.35;103057.38;5034628;28;20028;-67
2022/04/17 04:33:26;;;;;;;5.88;4.10;;;;;;;3.63;79.30;103057.31;5052023;28;20041;-67
2022/04/17 04:35:51;;;;;;;6.90;4.10;;;;;;;3.62;79.84;103049.44;5051848;28;20028;-68
2022/04/17 04:38:17;;;;;;;5.25;3.47;;;;;;;3.61;79.64;103051.19;5054260;28;20585;-67
2022/04/17 04:40:43;;;;;;;7.38;4.35;;;;;;;3.59;79.57;103047.63;5056572;28;20036;-67
2022/04/17 04:43:08;;;;;;;9.50;4.28;;;;;;;3.58;80.17;103052.81;5056950;28;20111;-67
2022/04/17 04:49:29;;;;;;;5.63;3.63;;;;;;;3.55;80.27;103048.44;5056595;28;20719;-67
2022/04/17 04:51:05;;;;;;;6.82;3.80;;;;;;;3.55;80.29;103043.19;5056483;28;20098;-67
2022/04/17 04:53:31;;;;;;;6.80;4.22;;;;;;;3.55;80.71;103039.69;5057080;28;20124;-67
2022/04/17 04:55:57;;;;;;;7.00;3.65;;;;;;;3.53;80.25;103044.88;5056071;28;20556;-67
2022/04/17 04:58:22;;;;;;;7.25;3.95;;;;;;;3.54;80.71;103046.66;5055733;28;20047;-67
2022/04/17 05:00:48;;;;;;;8.57;4.38;;;;;;;3.54;80.79;103044.03;5055954;28;20032;-67
2022/04/17 05:03:13;;;;;;;7.03;4.05;;;;;;;3.56;80.93;103041.44;5056723;28;20041;-67
2022/04/17 05:05:39;;;;;;;6.53;4.32;;;;;;;3.56;80.91;103039.72;5042686;28;20056;-68
2022/04/17 05:08:04;;;;;;;6.43;3.65;;;;;;;3.57;80.91;103044.09;5055632;28;20496;-67
2022/04/17 05:10:30;;;;;;;7.05;4.57;;;;;;;3.58;80.85;103045.88;5055557;28;20069;-67
2022/04/17 05:12:56;;;;;;;6.25;4.20;;;;;;;3.59;81.09;103052.88;5055418;28;20043;-67
2022/04/17 05:15:22;;;;;;;6.15;4.35;;;;;;;3.60;80.81;103044.16;5055947;28;20036;-68
2022/04/17 05:17:48;;;;;;;7.45;4.32;;;;;;;3.61;80.62;103052.91;5055795;28;20253;-67
2022/04/17 05:20:14;;;;;;;7.07;4.07;;;;;;;3.62;80.96;103055.56;5035820;28;20040;-67
2022/04/17 05:22:40;;;;;;;6.70;4.03;;;;;;;3.67;81.25;103053.88;5037518;28;20489;-68
2022/04/17 05:25:06;;;;;;;6.75;4.50;;;;;;;3.71;80.99;103048.72;5056141;28;20554;-67
2022/04/17 05:27:31;;;;;;;7.45;4.18;;;;;;;3.75;80.47;103050.53;5056414;28;20028;-67
2022/04/17 05:29:57;;;;;;;6.18;4.22;;;;;;;3.78;81.17;103046.25;5036285;28;20059;-67
2022/04/17 05:32:22;;;;;;;6.55;3.80;;;;;;;3.83;80.64;103048.06;5055314;28;20032;-67
2022/04/17 05:34:48;;;;;;;6.47;4.18;;;;;;;3.88;81.01;103049.03;5037492;28;20055;-67
2022/04/17 05:37:13;;;;;;;6.45;4.05;;;;;;;3.92;80.95;103054.34;5056057;28;20087;-67
2022/04/17 05:39:39;;;;;;;8.07;4.57;;;;;;;3.97;80.28;103048.31;5055228;28;20449;-67
2022/04/17 05:42:05;;;;;;;6.00;4.15;;;;;;;4.00;80.77;103049.25;5055200;28;20457;-67
2022/04/17 05:44:30;;;;;;;7.30;4.57;;;;;;;4.05;80.78;103051.94;5055736;28;20728;-67
2022/04/17 05:46:56;;;;;;;6.85;4.32;;;;;;;4.10;80.28;103052.03;5037056;28;20446;-67
2022/04/17 05:49:22;;;;;;;6.32;4.43;;;;;;;4.14;80.81;103057.34;5054126;28;20048;-67
2022/04/17 05:51:48;;;;;;;7.97;4.45;;;;;;;4.19;80.61;103052.16;5055457;28;20035;-68
2022/04/17 05:54:13;;;;;;;7.22;4.65;;;;;;;4.25;81.10;103056.66;5054785;28;20024;-67
2022/04/17 05:56:39;;;;;;;6.95;4.50;;;;;;;4.31;80.80;103059.38;5025009;28;20102;-67
2022/04/17 05:59:05;;;;;;;6.55;4.47;;;;;;;4.37;81.16;103059.47;5055632;28;20133;-68
2022/04/17 06:01:30;;;;;;;7.00;4.07;;;;;;;4.42;80.82;103063.03;5054522;28;20025;-67
2022/04/17 06:03:56;;;;;;;7.85;4.50;;;;;;;4.49;80.77;103056.16;5054165;28;20052;-68
2022/04/17 06:06:21;;;;;;;8.43;4.43;;;;;;;4.56;79.77;103054.50;5053915;28;20043;-68
2022/04/17 06:08:47;;;;;;;6.88;4.40;;;;;;;4.61;80.18;103055.47;5054788;28;20372;-67
2022/04/17 06:11:13;;;;;;;9.02;4.40;;;;;;;4.67;79.16;103059.91;5054082;28;20114;-67
2022/04/17 06:13:39;;;;;;;7.13;4.32;;;;;;;4.71;79.27;103062.63;5054984;28;20748;-67
2022/04/17 06:16:04;;;;;;;8.23;4.82;;;;;;;4.73;79.09;103060.91;5054624;28;20537;-67
2022/04/17 06:18:30;;;;;;;6.50;4.25;;;;;;;4.77;78.95;103056.56;5054690;28;20032;-67
2022/04/17 06:20:56;;;;;;;11.50;4.63;;;;;;;4.82;78.55;103054.00;5054372;28;20067;-67
2022/04/17 06:23:21;;;;;;;8.35;4.53;;;;;;;4.92;79.27;103045.41;5036030;28;20144;-67
2022/04/17 06:25:47;;;;;;;6.97;4.38;;;;;;;5.13;79.72;103043.94;5053754;28;20689;-67
2022/04/17 06:28:12;;;;;;;6.20;4.40;;;;;;;5.37;79.18;103058.22;5054603;28;20053;-67
2022/04/17 06:30:38;;;;;;;7.38;4.75;;;;;;;5.59;79.63;103054.09;5036284;28;20479;-67
2022/04/17 06:33:03;;;;;;;5.50;4.13;;;;;;;5.74;78.20;103063.91;5053963;28;20043;-67
2022/04/17 06:35:29;;;;;;;5.82;4.07;;;;;;;5.89;77.83;103051.78;5054969;28;20055;-67
2022/04/17 06:38:02;;;;;;;6.88;4.40;;;;;;;6.06;77.87;103051.97;5052294;28;20032;-68
2022/04/17 06:40:28;;;;;;;;;;;;;;;6.19;77.17;103051.19;5053763;28;20475;-67
2022/04/17 06:42:56;;;;;;;6.65;4.20;;;;;;;6.34;76.80;103039.94;5036710;28;19927;-68
2022/04/17 06:45:22;;;;;;;7.18;4.72;;;;;;;6.56;77.24;103050.59;5052976;28;20044;-68
2022/04/17 06:47:47;;;;;;;6.10;4.35;;;;;;;6.75;77.02;103050.72;5054555;28;20062;-67
2022/04/17 06:50:14;;;;;;;6.70;4.68;;;;;;;6.93;76.12;103040.28;5034695;28;20040;-67
2022/04/17 06:52:40;;;;;;;7.00;4.03;;;;;;;7.10;74.99;103041.22;5055189;28;20925;-67
2022/04/17 06:55:08;;;;;;;7.90;4.35;;;;;;;7.22;74.64;103029.84;5053773;28;20036;-68
2022/04/17 06:57:34;;;;;;;5.45;4.25;;;;;;;7.34;74.28;103037.81;5054521;28;20072;-68
2022/04/17 07:00:05;;;;;;;5.82;4.30;;;;;;;7.40;73.87;103026.44;5054796;28;20217;-68
2022/04/17 07:02:30;;;;;;;6.90;4.53;;;;;;;7.50;73.59;103028.19;5054258;28;20035;-68
2022/04/17 07:04:55;;;;;;;5.60;4.10;;;;;;;7.60;73.18;103024.72;5054260;28;20036;-68
2022/04/17 07:07:22;;;;;;;7.28;4.70;;;;;;;7.75;73.63;103026.47;5054842;28;20065;-68
2022/04/17 07:09:47;;;;;;;6.53;4.15;;;;;;;7.90;72.90;103024.72;5054965;28;20044;-68
2022/04/17 07:12:13;;;;;;;5.63;4.00;;;;;;;7.95;73.63;103017.72;5053625;28;20540;-68
2022/04/17 07:14:39;;;;;;;7.22;4.10;;;;;;;8.11;72.93;103026.50;5054157;28;20551;-68
2022/04/17 07:17:05;;;;;;;6.97;4.28;;;;;;;8.17;72.18;103019.47;5037432;28;20036;-67
2022/04/17 07:19:30;;;;;;;5.88;4.40;;;;;;;8.21;72.61;103026.50;5053223;28;20040;-67
2022/04/17 07:21:56;;;;;;;8.50;4.70;;;;;;;8.27;72.19;103019.47;5054586;28;20036;-67
2022/04/17 07:24:24;;;;;;;5.63;4.40;;;;;;;8.33;72.12;103015.06;5035997;28;20033;-67
2022/04/17 07:26:53;;;;;;;7.03;4.63;;;;;;;8.44;72.14;103018.56;5053897;28;20040;-67
2022/04/17 07:29:22;;;;;;;8.50;5.07;;;;;;;8.53;71.84;103020.34;5054783;28;20043;-67
2022/04/17 07:31:51;;;;;;;6.13;4.10;;;;;;;8.63;72.58;103015.91;5054537;28;20491;-68
2022/04/17 07:34:20;;;;;;;5.97;4.38;;;;;;;8.68;71.43;103015.00;5053960;28;20037;-68
2022/04/17 07:36:54;;;;;;;8.05;4.43;;;;;;;8.75;71.60;103005.31;5053446;28;20055;-67
2022/04/17 07:39:19;;;;;;;6.68;4.32;;;;;;;8.86;71.00;103007.03;5053628;28;20135;-67
2022/04/17 07:41:48;;;;;;;7.07;4.15;;;;;;;8.95;70.87;103007.88;5053683;28;20045;-66
2022/04/17 07:44:14;;;;;;;6.70;4.40;;;;;;;9.04;69.47;103006.13;5036665;28;20388;-67
2022/04/17 07:46:41;;;;;;;6.43;4.35;;;;;;;9.08;69.20;103003.44;5024339;28;20068;-67
2022/04/17 07:49:07;;;;;;;6.30;4.50;;;;;;;9.14;68.87;103001.66;5054538;28;20037;-68
2022/04/17 07:51:32;;;;;;;7.63;4.32;;;;;;;9.27;69.63;102998.06;5034970;28;20593;-68
2022/04/17 07:53:58;;;;;;;9.20;4.65;;;;;;;9.36;69.98;102998.00;5035886;28;20075;-68
2022/04/17 07:56:23;;;;;;;5.53;4.13;;;;;;;9.46;69.26;102996.19;5054388;28;20055;-68
2022/04/17 07:58:49;;;;;;;6.20;3.95;;;;;;;9.60;67.89;102993.44;5054915;28;20063;-68
2022/04/17 08:01:16;;;;;;;6.35;3.63;;;;;;;9.69;66.71;102992.50;5053839;28;20135;-67
2022/04/17 08:06:10;;;;;;;6.60;3.72;;;;;;;9.90;65.78;102986.16;5035664;28;20376;-67
2022/04/17 08:08:37;;;;;;;5.20;3.30;;;;;;;10.02;65.04;102981.69;5054579;28;20040;-67
2022/04/17 08:11:07;;;;;;;5.63;3.38;;;;;;;10.14;63.71;102985.97;5031071;28;20712;-68
2022/04/17 08:13:33;;;;;;;5.65;3.55;;;;;;;10.27;64.19;102984.06;5054373;28;20472;-67
2022/04/17 08:15:59;;;;;;;6.07;3.95;;;;;;;10.45;63.06;102990.97;5054060;28;20055;-68
2022/04/17 08:18:25;;;;;;;7.60;4.28;;;;;;;10.65;62.12;102987.22;5035980;28;20468;-67
2022/04/17 08:20:50;;;;;;;5.43;3.65;;;;;;;10.77;62.28;102987.09;5054955;28;20048;-68
2022/04/17 08:23:16;;;;;;;4.80;3.13;;;;;;;10.90;63.21;102986.94;5036313;28;20509;-68
2022/04/17 08:25:42;;;;;;;5.80;3.53;;;;;;;10.97;61.86;102984.22;5054406;28;20040;-68
2022/04/17 08:28:07;;;;;;;4.10;3.28;;;;;;;11.07;61.15;102974.34;5053856;28;20027;-68
2022/04/17 08:30:34;;;;;;;5.93;3.22;;;;;;;11.16;60.62;102980.44;5052842;28;20115;-68
2022/04/17 08:33:01;;;;;;;5.82;3.35;;;;;;;11.32;61.41;102975.78;5053564;28;20032;-67
2022/04/17 08:35:27;;;;;;;4.18;3.53;;;;;;;11.45;61.65;102984.44;5055639;28;20029;-68
2022/04/17 08:37:54;;;;;;;5.68;3.28;;;;;;;11.54;60.33;102977.22;5054011;28;20411;-67
2022/04/17 08:40:19;;;;;;;5.05;3.63;;;;;;;11.65;60.24;102973.50;5035961;28;20029;-67
2022/04/17 08:42:45;;;;;;;3.80;3.10;;;;;;;11.85;60.23;102977.59;5054093;28;21597;-69
2022/04/17 08:45:13;;;;;;;4.03;3.05;;;;;;;11.98;59.53;102968.53;5053829;28;20088;-68
2022/04/17 08:47:40;;;;;;;6.07;3.25;;;;;;;12.16;59.97;102970.00;5053284;28;20033;-67
2022/04/17 08:50:08;;;;;;;4.18;3.40;;;;;;;12.33;58.93;102961.72;5053907;28;20044;-68
2022/04/17 08:52:33;;;;;;;4.22;3.00;;;;;;;12.56;58.75;102965.72;5054304;28;20576;-68
2022/04/17 08:55:00;;;;;;;4.07;3.10;;;;;;;12.71;58.38;102963.66;5053660;28;20167;-68
2022/04/17 08:57:26;;;;;;;4.20;2.85;;;;;;;12.80;57.50;102960.81;5053394;28;20043;-67
2022/04/17 08:59:52;;;;;;;4.75;2.65;;;;;;;12.87;56.53;102961.56;5035128;28;20028;-68
2022/04/17 09:02:18;;;;;;;4.38;3.10;;;;;;;12.90;56.84;102961.47;5054107;28;20402;-68
2022/04/17 09:04:44;;;;;;;4.82;2.80;;;;;;;12.96;56.68;102955.19;5054536;28;20128;-68
2022/04/17 09:07:11;;;;;;;4.28;2.92;;;;;;;13.06;57.06;102954.06;5054647;28;20062;-68
2022/04/17 09:09:50;;;;;;;4.88;3.10;;;;;;;13.18;55.20;102964.41;5024319;28;20568;-68
2022/04/17 09:12:24;;;;;;;3.78;3.03;;;;;;;13.27;54.20;102959.78;5053742;28;20052;-68
2022/04/17 09:14:50;;;;;;;3.63;2.72;;;;;;;13.39;55.96;102962.16;5053812;28;20073;-67
2022/04/17 09:17:16;;;;;;;3.90;2.85;;;;;;;13.49;55.92;102959.31;5052981;28;20506;-67
2022/04/17 09:19:42;;;;;;;5.32;3.20;;;;;;;13.63;55.94;102965.19;5054517;28;20128;-68
2022/04/17 09:22:09;;;;;;;3.67;3.30;;;;;;;13.69;56.38;102966.81;5053382;28;20037;-67
2022/04/17 09:24:37;;;;;;;7.78;3.28;;;;;;;13.71;55.78;102957.88;5036903;28;20537;-67
2022/04/17 09:27:03;;;;;;;5.70;3.55;;;;;;;13.78;56.54;102966.56;5027537;28;20478;-68
2022/04/17 09:29:32;;;;;;;4.07;2.92;;;;;;;13.83;55.05;102963.78;5057270;28;20059;-68
2022/04/17 09:32:08;;;;;;;3.80;3.05;;;;;;;13.90;55.71;102956.53;5056314;28;20056;-68
2022/04/17 09:34:43;;;;;;;3.97;2.90;;;;;;;13.95;55.77;102955.50;5057520;28;20025;-68
2022/04/17 09:37:17;;;;;;;4.47;2.80;;;;;;;13.92;55.07;102950.25;5056123;28;20514;-68
2022/04/17 09:39:43;;;;;;;5.13;3.10;;;;;;;13.97;56.11;102947.47;5056986;28;20057;-68
2022/04/17 09:42:08;;;;;;;4.57;3.10;;;;;;;14.06;56.84;102941.03;5056228;28;20142;-68
2022/04/17 09:44:47;;;;;;;4.25;2.80;;;;;;;14.12;55.20;102948.88;5057638;28;20039;-68
2022/04/17 09:47:16;;;;;;;5.00;2.88;;;;;;;14.20;55.19;102945.97;5055685;28;20045;-68
2022/04/17 09:50:01;;;;;;;3.45;2.70;;;;;;;14.33;53.04;102943.84;5057734;28;20028;-69
2022/04/17 09:52:31;;;;;;;4.65;2.97;;;;;;;14.31;55.38;102930.56;5021370;28;20029;-70
2022/04/17 09:55:01;;;;;;;4.63;2.90;;;;;;;14.37;54.11;102934.84;5056993;28;20024;-69
2022/04/17 09:57:47;;;;;;;3.97;2.83;;;;;;;14.47;54.92;102925.69;5057029;28;20078;-69
2022/04/17 10:00:15;;;;;;;3.35;2.75;;;;;;;14.52;54.61;102923.75;5054382;28;20047;-68
2022/04/17 10:02:47;;;;;;;3.67;2.80;;;;;;;14.49;52.86;102922.97;5026110;28;20036;-68
2022/04/17 10:05:20;;;;;;;4.30;2.92;;;;;;;14.43;52.90;102916.00;5056867;28;20062;-68
2022/04/17 10:07:47;;;;;;;4.60;3.03;;;;;;;14.43;53.93;102908.03;5043467;28;20040;-68
2022/04/17 10:10:14;;;;;;;3.85;2.80;;;;;;;14.35;53.88;102908.25;5055885;28;20116;-68
2022/04/17 10:12:40;;;;;;;3.58;2.78;;;;;;;14.29;53.53;102899.56;5055911;28;20036;-69
2022/04/17 10:15:06;;;;;;;3.58;2.70;;;;;;;14.26;53.79;102895.19;5056831;28;20057;-69
2022/04/17 10:17:33;;;;;;;3.40;2.75;;;;;;;14.20;53.18;102893.59;5026723;28;20362;-69
2022/04/17 10:20:06;;;;;;;3.53;2.95;;;;;;;14.20;52.25;102892.69;5056167;28;20811;-68
2022/04/17 10:22:43;;;;;;;3.03;2.40;;;;;;;14.11;51.68;102881.38;5056203;28;20028;-68
2022/04/17 10:25:09;;;;;;;2.90;2.65;;;;;;;14.06;52.44;102877.13;5055034;28;20162;-68
2022/04/17 10:27:41;;;;;;;3.63;2.63;;;;;;;14.01;51.14;102874.59;5056070;28;20039;-68
2022/04/17 10:30:10;;;;;;;4.32;2.40;;;;;;;14.05;51.38;102876.22;5042713;28;20142;-68
2022/04/17 10:33:06;;;;;;;4.22;2.72;;;;;;;14.04;49.93;102873.59;5037801;28;20037;-68
2022/04/17 10:35:37;;;;;;;5.28;2.67;;;;;;;13.94;51.15;102863.22;5054784;28;20438;-69
2022/04/17 10:38:40;;;;;;;3.72;2.75;;;;;;;13.87;50.27;102863.41;5055006;28;20437;-68
2022/04/17 10:41:07;;;;;;;3.47;2.95;;;;;;;13.83;51.93;102854.63;5056086;28;20036;-68
2022/04/17 10:43:42;;;;;;;6.38;2.60;;;;;;;13.82;51.18;102858.22;5037370;28;20035;-68
2022/04/17 10:46:08;;;;;;;4.15;2.60;;;;;;;13.82;52.48;102853.78;5055116;28;20043;-68
2022/04/17 10:48:43;;;;;;;4.97;2.90;;;;;;;13.79;51.75;102842.34;5055854;28;20056;-67
2022/04/17 10:51:13;;;;;;;3.17;2.60;;;;;;;13.79;51.81;102848.53;5055303;28;20047;-67
2022/04/17 10:53:49;;;;;;;4.53;2.90;;;;;;;13.75;50.84;102841.56;5037063;28;20495;-67
2022/04/17 10:56:16;;;;;;;3.75;3.03;;;;;;;13.83;51.92;102844.88;5054904;28;20486;-68
2022/04/17 10:58:50;;;;;;;4.93;2.83;;;;;;;13.89;51.02;102841.16;5055988;28;20043;-67
2022/04/17 11:01:15;;;;;;;3.60;2.78;;;;;;;13.90;51.46;102836.72;5054669;28;20124;-67
2022/04/17 11:03:54;;;;;;;3.10;2.40;;;;;;;13.89;50.44;102829.66;5037251;28;20043;-68
2022/04/17 11:06:32;;;;;;;3.85;2.55;;;;;;;13.84;51.60;102821.81;5022605;28;20029;-68
2022/04/17 11:09:04;;;;;;;2.85;2.38;;;;;;;13.83;50.40;102822.69;5037263;28;20079;-68
2022/04/17 11:11:37;;;;;;;3.40;2.50;;;;;;;13.85;51.23;102812.91;5055041;28;20550;-69
2022/04/17 11:14:11;;;;;;;4.13;2.33;;;;;;;13.97;49.52;102811.66;5055354;28;20503;-68
2022/04/17 11:16:51;;;;;;;3.17;2.45;;;;;;;14.10;48.04;102802.41;5055613;28;20060;-69
2022/04/17 11:19:20;;;;;;;2.60;2.03;;;;;;;14.13;49.15;102802.31;5055272;28;20822;-68
2022/04/17 11:21:50;;;;;;;2.50;2.17;;;;;;;14.22;48.92;102795.84;5052949;28;20586;-69
2022/04/17 11:24:16;;;;;;;2.78;2.28;;;;;;;14.30;48.44;102794.72;5054748;28;20028;-68
2022/04/17 11:26:53;;;;;;;4.15;2.40;;;;;;;14.37;47.61;102788.28;5054186;28;20075;-68
2022/04/17 11:29:39;;;;;;;2.60;2.33;;;;;;;14.37;46.71;102783.84;5053849;28;20033;-68
2022/04/17 11:32:16;;;;;;;2.45;2.25;;;;;;;14.38;47.08;102787.38;5036721;28;20124;-68
2022/04/17 11:34:46;;;;;;;4.22;2.50;;;;;;;14.30;48.14;102782.31;5054839;28;20043;-68
2022/04/17 11:37:12;;;;;;;2.90;2.35;;;;;;;14.28;48.82;102776.16;5054426;28;20039;-69
2022/04/17 11:39:38;;;;;;;3.10;2.40;;;;;;;14.31;47.97;102770.72;5055297;28;20036;-69
2022/04/17 11:42:06;;;;;;;4.03;2.20;;;;;;;14.38;47.62;102764.28;5053642;28;20024;-69
2022/04/17 11:44:32;;;;;;;2.90;2.30;;;;;;;14.41;47.80;102763.31;5054615;28;20560;-68
2022/04/17 11:46:58;;;;;;;2.55;2.10;;;;;;;14.38;47.72;102761.63;5037761;28;20033;-68